Portada
METAR-TAF:

METAR-TAF

Aeroports :

Lawrence Municipal Airport

Lawrence, Kansas, Estats Units d'Amèrica

latitud: 39-00-30N, longitud: 095-12-42W, altitud: 253 m

Observació

L'informe es va fer fa 25 minuts, a les 18:52 UTC
Vent 6 kt del Sud
Temperatura 32°C
Humitat 56%
Pressió 1024 hPa
Visibilitat: 16.1 km
Cel clar

METAR: KLWC 201852Z AUTO 19006KT 10SM CLR 32/22 A3023 RMK AO1 SLP228 T03220222

Hora: 14:17 (19:17 UTC)


TAF: manca

Observacions i pronòstics meteorològics de més de 4000 aeroports (METAR i TAF).

Les estacions disponibles són els punts grocs i vermells al mapa.

Posi el ratolí al punt desitjat per veure el nom de l'estació.

Feu clic per veure les observacions i els pronòstics meteorològics.

Per canviar el mapa: feu clic els botons verds amb una creu de color negre per apropar; al botó verd amb un guió per allunyar la imatge; o en les fletxes verdes per a mapes adjacents.


METAR-TAF: